createdAt,value
2022-09-27T00:01:00.472Z,57.74
2022-09-27T00:03:30.424Z,58.23
2022-09-27T00:06:06.393Z,58.27
2022-09-27T00:08:35.492Z,57.43
2022-09-27T00:11:05.957Z,57.22
2022-09-27T00:13:34.577Z,57.85
2022-09-27T00:16:06.145Z,56.86
2022-09-27T00:18:35.096Z,56.05
2022-09-27T00:21:08.035Z,56.92
2022-09-27T00:23:36.489Z,56.91
2022-09-27T00:26:07.215Z,57.18
2022-09-27T00:28:36.457Z,57.77
2022-09-27T00:31:05.601Z,57.42
2022-09-27T00:33:33.710Z,57.50
2022-09-27T00:36:05.988Z,57.81
2022-09-27T00:38:33.985Z,57.86
2022-09-27T00:41:02.149Z,57.74
2022-09-27T00:43:46.147Z,58.63
2022-09-27T00:46:17.796Z,58.07
2022-09-27T00:48:47.966Z,58.45
2022-09-27T00:51:16.811Z,57.14
2022-09-27T00:53:51.608Z,56.77
2022-09-27T00:56:23.238Z,57.50
2022-09-27T00:58:59.036Z,57.30
2022-09-27T01:01:26.940Z,57.26
2022-09-27T01:04:00.403Z,56.58
2022-09-27T01:06:28.310Z,57.59
2022-09-27T01:08:56.224Z,57.38
2022-09-27T01:11:36.448Z,57.55
2022-09-27T01:14:30.075Z,57.16
2022-09-27T01:17:08.044Z,56.76
2022-09-27T01:19:53.195Z,57.64
2022-09-27T01:22:27.199Z,56.54
2022-09-27T01:25:09.032Z,57.66
2022-09-27T01:28:01.529Z,58.79
2022-09-27T01:30:39.628Z,59.37
2022-09-27T01:33:32.766Z,59.07
2022-09-27T01:36:17.485Z,59.05
2022-09-27T01:38:56.332Z,59.28
2022-09-27T01:41:34.641Z,58.81
2022-09-27T01:44:26.168Z,59.60
2022-09-27T01:47:05.613Z,59.68
2022-09-27T01:50:10.107Z,59.93
2022-09-27T01:52:44.022Z,59.90
2022-09-27T01:55:15.678Z,61.18
2022-09-27T01:58:06.003Z,63.10
2022-09-27T02:00:35.852Z,64.21
2022-09-27T02:03:12.116Z,63.79
2022-09-27T02:05:45.179Z,64.03
2022-09-27T02:08:37.584Z,63.75
2022-09-27T02:11:14.996Z,65.39
2022-09-27T02:13:54.444Z,65.67
2022-09-27T02:16:50.183Z,64.16
2022-09-27T02:19:33.164Z,65.26
2022-09-27T02:22:14.243Z,66.37
2022-09-27T02:24:47.175Z,64.48
2022-09-27T02:27:22.436Z,66.46
2022-09-27T02:29:58.653Z,68.64
2022-09-27T02:32:27.438Z,68.55
2022-09-27T02:35:02.261Z,67.11
2022-09-27T02:37:31.493Z,68.60
2022-09-27T02:39:59.564Z,67.42
2022-09-27T02:42:28.723Z,69.35
2022-09-27T02:44:56.866Z,68.92
2022-09-27T02:47:47.762Z,68.38
2022-09-27T02:50:34.229Z,67.16
2022-09-27T02:53:40.074Z,69.45
2022-09-27T02:56:35.440Z,69.70
2022-09-27T02:59:31.106Z,67.49
2022-09-27T03:02:31.196Z,67.34
2022-09-27T03:05:23.454Z,66.53
2022-09-27T03:07:51.690Z,67.12
2022-09-27T03:10:21.786Z,66.28
2022-09-27T03:12:50.380Z,66.81
2022-09-27T03:15:18.547Z,67.60
2022-09-27T03:18:01.568Z,67.98
2022-09-27T03:20:49.207Z,67.77
2022-09-27T03:23:18.620Z,66.87
2022-09-27T03:25:46.643Z,66.53
2022-09-27T03:28:14.613Z,67.64
2022-09-27T03:34:07.622Z,66.18
2022-09-27T03:36:37.381Z,66.23
2022-09-27T03:39:05.265Z,65.75
2022-09-27T03:41:33.391Z,66.73
2022-09-27T03:44:01.732Z,67.17
2022-09-27T03:46:29.727Z,66.88
2022-09-27T03:48:57.659Z,66.74
2022-09-27T03:51:25.800Z,67.23
2022-09-27T03:53:55.104Z,65.71
2022-09-27T03:56:22.981Z,65.06
2022-09-27T03:58:50.888Z,65.14
2022-09-27T04:01:19.882Z,65.28
2022-09-27T04:03:52.893Z,65.03
2022-09-27T04:06:27.556Z,65.62
2022-09-27T04:08:56.964Z,64.65
2022-09-27T04:11:32.051Z,64.30
2022-09-27T04:13:59.866Z,66.41
2022-09-27T04:16:36.314Z,65.69
2022-09-27T04:19:23.269Z,65.36
2022-09-27T04:22:05.623Z,65.72
2022-09-27T04:24:35.227Z,66.07
2022-09-27T04:27:18.355Z,65.79
2022-09-27T04:29:47.529Z,65.45
2022-09-27T04:32:35.543Z,65.35
2022-09-27T04:35:44.167Z,66.39
2022-09-27T04:38:14.420Z,66.83
2022-09-27T04:40:45.070Z,66.76
2022-09-27T04:43:13.721Z,65.88
2022-09-27T04:45:41.830Z,66.96
2022-09-27T04:48:09.828Z,65.79
2022-09-27T04:50:38.029Z,66.82
2022-09-27T04:53:06.179Z,65.27
2022-09-27T04:55:34.470Z,65.98
2022-09-27T04:58:05.257Z,66.72
2022-09-27T05:00:33.705Z,66.36
2022-09-27T05:03:20.216Z,66.99
2022-09-27T05:05:56.797Z,65.95
2022-09-27T05:08:25.126Z,65.32
2022-09-27T05:11:16.234Z,66.62
2022-09-27T05:14:01.927Z,66.30
2022-09-27T05:16:33.385Z,67.45
2022-09-27T05:19:28.686Z,65.74
2022-09-27T05:22:08.164Z,65.38
2022-09-27T05:24:38.360Z,65.51
2022-09-27T05:27:08.294Z,65.05
2022-09-27T05:29:37.546Z,66.18
2022-09-27T05:32:43.906Z,65.85
2022-09-27T05:35:27.559Z,64.95
2022-09-27T05:37:59.311Z,65.70
2022-09-27T05:40:41.347Z,65.44
2022-09-27T05:43:11.662Z,65.95
2022-09-27T05:45:41.180Z,66.03
2022-09-27T05:48:09.161Z,64.67
2022-09-27T05:50:46.537Z,66.54
2022-09-27T05:53:15.095Z,66.97
2022-09-27T05:55:44.028Z,66.05
2022-09-27T05:58:16.481Z,66.95
2022-09-27T06:00:54.457Z,66.71
2022-09-27T06:03:46.614Z,68.03
2022-09-27T06:06:40.546Z,67.98
2022-09-27T06:09:11.535Z,67.47
2022-09-27T06:11:41.856Z,68.43
2022-09-27T06:14:13.823Z,68.75
2022-09-27T06:16:55.905Z,69.03
2022-09-27T06:19:27.828Z,69.36
2022-09-27T06:21:57.135Z,68.56
2022-09-27T06:24:29.031Z,69.75
2022-09-27T06:26:59.434Z,68.49
2022-09-27T06:29:37.500Z,69.66
2022-09-27T06:32:08.872Z,69.25
2022-09-27T06:34:49.192Z,69.30
2022-09-27T06:37:17.272Z,69.11
2022-09-27T06:39:45.271Z,68.32
2022-09-27T06:42:51.296Z,68.88
2022-09-27T06:45:28.501Z,69.16
2022-09-27T06:48:17.178Z,69.29
2022-09-27T06:50:57.956Z,68.91
2022-09-27T06:53:26.015Z,69.29
2022-09-27T06:55:54.142Z,69.83
2022-09-27T06:58:40.332Z,68.43
2022-09-27T07:01:40.725Z,69.47
2022-09-27T07:04:28.862Z,69.67
2022-09-27T07:07:10.618Z,69.50
2022-09-27T07:09:40.786Z,68.42
2022-09-27T07:12:08.973Z,68.08
2022-09-27T07:14:36.851Z,67.31
2022-09-27T07:17:06.190Z,67.37
2022-09-27T07:19:39.895Z,66.63
2022-09-27T07:22:09.205Z,66.49
2022-09-27T07:24:37.505Z,66.43
2022-09-27T07:27:06.626Z,65.58
2022-09-27T07:29:34.843Z,62.89
2022-09-27T07:32:05.287Z,65.28
2022-09-27T07:34:34.669Z,65.58
2022-09-27T07:37:05.642Z,63.88
2022-09-27T07:39:37.621Z,64.11
2022-09-27T07:42:06.200Z,65.01
2022-09-27T07:44:35.709Z,64.77
2022-09-27T07:47:24.092Z,63.12
2022-09-27T07:50:11.306Z,63.46
2022-09-27T07:52:51.377Z,62.50
2022-09-27T07:55:44.041Z,62.06
2022-09-27T07:58:20.985Z,64.02
2022-09-27T08:00:50.707Z,64.64
2022-09-27T08:03:19.105Z,64.66
2022-09-27T08:05:49.199Z,64.11
2022-09-27T08:08:18.523Z,61.12
2022-09-27T08:10:48.433Z,60.76
2022-09-27T08:13:20.440Z,60.38
2022-09-27T08:15:52.611Z,61.22
2022-09-27T08:18:22.131Z,60.26
2022-09-27T08:21:10.620Z,59.68
2022-09-27T08:24:13.669Z,59.76
2022-09-27T08:27:05.198Z,60.69
2022-09-27T08:30:09.281Z,61.02
2022-09-27T08:32:38.286Z,60.85
2022-09-27T08:35:08.850Z,60.61
2022-09-27T08:37:36.708Z,60.78
2022-09-27T08:40:09.709Z,61.97
2022-09-27T08:42:45.189Z,61.97
2022-09-27T08:45:18.365Z,61.53
2022-09-27T08:47:50.237Z,61.81
2022-09-27T08:50:26.654Z,62.73
2022-09-27T08:52:59.007Z,61.90
2022-09-27T08:55:37.454Z,61.48
2022-09-27T08:58:17.355Z,61.61
2022-09-27T09:00:45.463Z,59.51
2022-09-27T09:03:20.085Z,59.00
2022-09-27T09:06:08.846Z,53.88
2022-09-27T09:08:50.803Z,52.70
2022-09-27T09:11:52.789Z,52.92
2022-09-27T09:14:34.951Z,51.07
2022-09-27T09:17:14.546Z,53.90
2022-09-27T09:20:20.269Z,55.44
2022-09-27T09:23:32.099Z,55.61
2022-09-27T09:26:04.292Z,57.92
2022-09-27T09:28:50.755Z,56.87
2022-09-27T09:31:30.130Z,55.21
2022-09-27T09:34:02.582Z,56.42
2022-09-27T09:36:33.947Z,58.17
2022-09-27T09:39:06.715Z,57.83
2022-09-27T09:41:40.199Z,58.85
2022-09-27T09:44:18.391Z,58.45
2022-09-27T09:46:50.222Z,57.91
2022-09-27T09:49:22.686Z,56.07
2022-09-27T09:51:56.773Z,56.57
2022-09-27T09:54:31.597Z,56.36
2022-09-27T09:57:04.785Z,56.08
2022-09-27T09:59:41.352Z,57.25
2022-09-27T10:02:24.453Z,56.03
2022-09-27T10:04:53.781Z,57.65
2022-09-27T10:07:24.283Z,58.13
2022-09-27T10:09:53.965Z,57.59
2022-09-27T10:12:40.460Z,56.54
2022-09-27T10:15:16.882Z,57.96
2022-09-27T10:17:50.145Z,58.41
2022-09-27T10:20:31.069Z,58.55
2022-09-27T10:23:05.616Z,57.72
2022-09-27T10:25:51.540Z,58.79
2022-09-27T10:28:52.370Z,58.73
2022-09-27T10:31:38.495Z,56.49
2022-09-27T10:34:22.245Z,58.53
2022-09-27T10:37:07.713Z,59.32
2022-09-27T10:39:38.618Z,59.41
2022-09-27T10:42:21.301Z,60.79
2022-09-27T10:44:50.019Z,60.45
2022-09-27T10:47:32.973Z,59.86
2022-09-27T10:50:07.838Z,57.73
2022-09-27T10:53:05.146Z,56.02
2022-09-27T10:55:36.017Z,56.07
2022-09-27T10:58:05.341Z,58.75
2022-09-27T11:00:35.137Z,58.65
2022-09-27T11:03:09.082Z,59.87
2022-09-27T11:05:39.643Z,60.17
2022-09-27T11:08:24.365Z,58.64
2022-09-27T11:11:21.323Z,58.15
2022-09-27T11:14:00.372Z,58.92
2022-09-27T11:16:48.137Z,58.89
2022-09-27T11:19:30.754Z,58.41
2022-09-27T11:22:08.670Z,58.29
2022-09-27T11:24:54.176Z,59.54
2022-09-27T11:27:36.869Z,60.39
2022-09-27T11:30:11.410Z,62.08
2022-09-27T11:33:09.149Z,63.97
2022-09-27T11:35:57.075Z,63.33
2022-09-27T11:38:51.055Z,61.49
2022-09-27T11:41:31.730Z,61.67
2022-09-27T11:44:28.478Z,60.95
2022-09-27T11:47:06.515Z,57.25
2022-09-27T11:50:04.959Z,53.50
2022-09-27T11:52:49.071Z,50.87
2022-09-27T11:55:28.403Z,48.15
2022-09-27T11:58:05.623Z,50.53
2022-09-27T12:00:48.756Z,53.21
2022-09-27T12:03:44.760Z,54.56
2022-09-27T12:06:20.815Z,56.29
2022-09-27T12:09:03.021Z,58.09
2022-09-27T12:11:38.479Z,57.39
2022-09-27T12:14:12.826Z,60.41
2022-09-27T12:16:42.442Z,62.63
2022-09-27T12:19:19.266Z,66.35
2022-09-27T12:22:08.422Z,69.34
2022-09-27T12:24:43.426Z,69.16
2022-09-27T12:27:38.679Z,69.98
2022-09-27T12:30:13.434Z,68.87
2022-09-27T12:32:51.986Z,68.31
2022-09-27T12:35:24.504Z,68.75
2022-09-27T12:37:59.425Z,68.15
2022-09-27T12:40:34.500Z,68.57
2022-09-27T12:43:09.187Z,69.45
2022-09-27T12:46:09.143Z,69.08
2022-09-27T12:48:46.129Z,69.80
2022-09-27T12:51:17.016Z,69.24
2022-09-27T12:54:04.059Z,68.93
2022-09-27T12:56:49.633Z,68.65
2022-09-27T12:59:45.481Z,68.52
2022-09-27T13:03:15.409Z,67.70
2022-09-27T13:06:25.453Z,66.56
2022-09-27T13:09:08.338Z,66.78
2022-09-27T13:11:46.672Z,65.50
2022-09-27T13:14:19.926Z,64.80
2022-09-27T13:16:49.473Z,63.45
2022-09-27T13:19:42.965Z,63.04
2022-09-27T13:22:38.014Z,62.87
2022-09-27T13:25:52.937Z,62.50
2022-09-27T13:28:58.365Z,61.63
2022-09-27T13:32:12.528Z,62.32
2022-09-27T13:35:13.132Z,62.33
2022-09-27T13:38:06.123Z,61.84
2022-09-27T13:40:42.964Z,60.91
2022-09-27T13:43:35.259Z,61.32
2022-09-27T13:46:18.029Z,61.19
2022-09-27T13:48:53.999Z,63.19
2022-09-27T13:51:38.358Z,63.16
2022-09-27T13:54:11.239Z,62.84
2022-09-27T13:56:56.351Z,61.97
2022-09-27T13:59:31.189Z,63.48
2022-09-27T14:02:14.728Z,63.89
2022-09-27T14:04:45.381Z,63.83
2022-09-27T14:07:18.061Z,64.67
2022-09-27T14:09:49.087Z,63.91
2022-09-27T14:12:27.152Z,63.85
2022-09-27T14:14:57.756Z,63.56
2022-09-27T14:17:27.802Z,63.56
2022-09-27T14:19:56.382Z,58.91
2022-09-27T14:22:26.288Z,59.23
2022-09-27T14:24:58.227Z,59.93
2022-09-27T14:27:40.442Z,59.78
2022-09-27T14:30:30.992Z,56.58
2022-09-27T14:33:32.483Z,57.69
2022-09-27T14:36:39.918Z,59.04
2022-09-27T14:39:15.242Z,59.40
2022-09-27T14:41:44.814Z,60.21
2022-09-27T14:44:17.037Z,60.98
2022-09-27T14:46:46.622Z,60.83
2022-09-27T14:49:24.898Z,61.83
2022-09-27T14:51:54.576Z,62.45
2022-09-27T14:54:26.383Z,62.18
2022-09-27T14:56:56.978Z,62.05
2022-09-27T14:59:31.042Z,62.28
2022-09-27T15:02:02.012Z,60.59
2022-09-27T15:04:33.252Z,59.11
2022-09-27T15:07:02.460Z,57.48
2022-09-27T15:09:33.487Z,57.57
2022-09-27T15:12:05.221Z,56.48
2022-09-27T15:14:34.317Z,57.84
2022-09-27T15:17:06.133Z,57.35
2022-09-27T15:19:35.744Z,56.97
2022-09-27T15:23:46.785Z,58.05
2022-09-27T15:26:17.492Z,57.89
2022-09-27T15:28:47.480Z,59.39
2022-09-27T15:31:16.929Z,61.21
2022-09-27T15:33:54.714Z,63.62
2022-09-27T15:36:52.028Z,63.91
2022-09-27T15:39:28.432Z,64.46
2022-09-27T15:42:05.697Z,63.84
2022-09-27T15:44:46.034Z,63.94
2022-09-27T15:47:48.889Z,62.84
2022-09-27T15:50:38.252Z,62.96
2022-09-27T15:53:07.054Z,63.19
2022-09-27T15:55:42.105Z,62.93
2022-09-27T15:58:16.702Z,62.14
2022-09-27T16:00:55.243Z,63.48
2022-09-27T16:03:23.651Z,64.91
2022-09-27T16:05:51.976Z,65.41
2022-09-27T16:08:19.850Z,65.98
2022-09-27T16:10:52.085Z,66.24
2022-09-27T16:13:20.182Z,66.75
2022-09-27T16:15:49.432Z,65.39
2022-09-27T16:18:17.539Z,64.92
2022-09-27T16:20:45.438Z,66.09
2022-09-27T16:23:13.241Z,66.26
2022-09-27T16:25:41.516Z,66.68
2022-09-27T16:28:12.631Z,66.60
2022-09-27T16:30:40.480Z,66.86
2022-09-27T16:33:08.705Z,66.04
2022-09-27T16:35:39.990Z,66.54
2022-09-27T16:38:07.978Z,66.93
2022-09-27T16:40:36.885Z,66.57
2022-09-27T16:43:07.359Z,66.91
2022-09-27T16:45:37.067Z,67.00
2022-09-27T16:48:05.300Z,66.84
2022-09-27T16:50:50.466Z,67.24
2022-09-27T16:53:18.551Z,67.10
2022-09-27T16:55:46.513Z,67.08
2022-09-27T16:58:14.421Z,67.28
2022-09-27T17:00:44.226Z,67.15
2022-09-27T17:03:12.347Z,67.09
2022-09-27T17:05:40.174Z,66.95
2022-09-27T17:08:08.049Z,66.98
2022-09-27T17:10:38.673Z,67.15
2022-09-27T17:13:07.206Z,68.02
2022-09-27T17:15:35.127Z,68.57
2022-09-27T17:18:04.607Z,68.67
2022-09-27T17:20:33.019Z,68.84
2022-09-27T17:23:00.914Z,69.55
2022-09-27T17:25:28.728Z,68.99
2022-09-27T17:27:57.766Z,68.91
2022-09-27T17:30:26.273Z,69.12
2022-09-27T17:32:54.235Z,68.86
2022-09-27T17:35:23.423Z,69.10
2022-09-27T17:37:51.303Z,69.35
2022-09-27T17:40:19.175Z,69.49
2022-09-27T17:42:47.037Z,69.91
2022-09-27T17:45:15.443Z,69.96
2022-09-27T17:47:57.549Z,69.67
2022-09-27T17:50:28.441Z,69.86
2022-09-27T17:52:58.521Z,70.87
2022-09-27T17:55:27.519Z,71.48
2022-09-27T17:57:55.426Z,71.30
2022-09-27T18:00:23.247Z,70.83
2022-09-27T18:02:51.250Z,70.36
2022-09-27T18:05:21.367Z,70.09
2022-09-27T18:07:50.616Z,69.72
2022-09-27T18:10:18.715Z,69.25
2022-09-27T18:12:46.656Z,69.39
2022-09-27T18:15:16.645Z,68.96
2022-09-27T18:17:45.854Z,68.59
2022-09-27T18:20:13.646Z,69.01
2022-09-27T18:22:41.553Z,68.93
2022-09-27T18:25:12.002Z,68.94
2022-09-27T18:27:40.419Z,69.05
2022-09-27T18:30:09.661Z,69.18
2022-09-27T18:32:37.810Z,69.56
2022-09-27T18:35:07.014Z,68.87
2022-09-27T18:37:34.833Z,69.58
2022-09-27T18:40:03.207Z,68.81
2022-09-27T18:42:32.377Z,68.80
2022-09-27T18:45:00.172Z,68.32
2022-09-27T18:47:28.149Z,68.75
2022-09-27T18:49:56.037Z,67.84
2022-09-27T18:52:23.860Z,68.69
2022-09-27T18:54:51.617Z,68.58
2022-09-27T18:57:19.425Z,68.39
2022-09-27T18:59:49.309Z,68.63
2022-09-27T19:02:17.214Z,68.30
2022-09-27T19:04:45.033Z,68.47
2022-09-27T19:07:12.890Z,68.70
2022-09-27T19:09:40.734Z,68.81
2022-09-27T19:12:10.853Z,69.44
2022-09-27T19:14:38.852Z,69.28
2022-09-27T19:17:08.035Z,68.85
2022-09-27T19:19:35.966Z,69.07
2022-09-27T19:22:04.112Z,68.57
2022-09-27T19:24:32.098Z,68.53
2022-09-27T19:26:59.939Z,67.93
2022-09-27T19:29:27.935Z,66.98
2022-09-27T19:31:56.031Z,66.42
2022-09-27T19:34:25.494Z,66.57
2022-09-27T19:36:53.527Z,66.50
2022-09-27T19:39:21.303Z,66.20
2022-09-27T19:41:49.081Z,65.46
2022-09-27T19:44:16.961Z,65.18
2022-09-27T19:46:45.854Z,66.39
2022-09-27T19:49:14.297Z,65.76
2022-09-27T19:51:43.515Z,66.36
2022-09-27T19:54:11.651Z,67.79
2022-09-27T19:56:39.445Z,67.60
2022-09-27T19:59:07.551Z,67.19
2022-09-27T20:01:35.566Z,67.34
2022-09-27T20:04:04.014Z,67.37
2022-09-27T20:06:32.761Z,66.87
2022-09-27T20:09:03.582Z,66.10
2022-09-27T20:11:33.216Z,66.59
2022-09-27T20:14:01.297Z,66.24
2022-09-27T20:16:29.637Z,65.36
2022-09-27T20:18:58.987Z,66.57
2022-09-27T20:21:28.780Z,67.20
2022-09-27T20:23:58.362Z,67.45
2022-09-27T20:26:29.013Z,66.40
2022-09-27T20:28:58.853Z,66.10
2022-09-27T20:31:28.578Z,65.55
2022-09-27T20:33:57.490Z,64.55
2022-09-27T20:36:27.634Z,65.05
2022-09-27T20:39:02.014Z,65.11
2022-09-27T20:41:33.630Z,64.71
2022-09-27T20:44:04.185Z,65.06
2022-09-27T20:46:32.745Z,64.73
2022-09-27T20:49:03.474Z,64.80
2022-09-27T20:51:33.379Z,65.11
2022-09-27T20:54:01.288Z,65.15
2022-09-27T20:56:31.521Z,65.68
2022-09-27T20:59:02.345Z,65.67
2022-09-27T21:01:31.217Z,64.76
2022-09-27T21:04:00.931Z,64.27
2022-09-27T21:06:29.373Z,65.25
2022-09-27T21:08:57.279Z,64.96
2022-09-27T21:11:25.676Z,65.25
2022-09-27T21:13:54.569Z,66.02
2022-09-27T21:16:25.931Z,65.85
2022-09-27T21:18:55.983Z,65.00
2022-09-27T21:21:25.221Z,64.90
2022-09-27T21:23:55.412Z,63.81
2022-09-27T21:26:24.174Z,64.00
2022-09-27T21:28:53.452Z,62.96
2022-09-27T21:31:24.720Z,63.12
2022-09-27T21:33:54.641Z,63.98
2022-09-27T21:36:24.354Z,65.51
2022-09-27T21:38:56.671Z,65.34
2022-09-27T21:41:25.596Z,65.42
2022-09-27T21:43:53.750Z,65.76
2022-09-27T21:46:27.642Z,65.97
2022-09-27T21:48:57.785Z,65.50
2022-09-27T21:51:27.513Z,65.32
2022-09-27T21:53:57.063Z,65.45
2022-09-27T21:56:27.298Z,65.34
2022-09-27T21:58:55.362Z,64.92
2022-09-27T22:01:26.343Z,64.97
2022-09-27T22:03:55.631Z,65.85
2022-09-27T22:06:25.690Z,66.17
2022-09-27T22:08:54.444Z,66.23
2022-09-27T22:11:24.062Z,66.51
2022-09-27T22:13:52.014Z,66.46
2022-09-27T22:16:21.468Z,66.40
2022-09-27T22:18:53.188Z,66.77
2022-09-27T22:21:22.921Z,67.02
2022-09-27T22:23:54.593Z,67.23
2022-09-27T22:26:24.773Z,67.67
2022-09-27T22:28:53.098Z,67.55
2022-09-27T22:31:25.645Z,67.42
2022-09-27T22:33:57.162Z,67.54
2022-09-27T22:36:25.510Z,67.06
2022-09-27T22:38:54.781Z,67.37
2022-09-27T22:41:22.836Z,67.21
2022-09-27T22:43:53.571Z,67.27
2022-09-27T22:46:22.211Z,67.11
2022-09-27T22:48:50.465Z,67.19
2022-09-27T22:51:19.641Z,68.10
2022-09-27T22:53:47.480Z,68.54
2022-09-27T22:56:19.428Z,68.24
2022-09-27T22:58:48.596Z,67.88
2022-09-27T23:01:18.154Z,68.22
2022-09-27T23:03:47.168Z,68.03
2022-09-27T23:06:16.718Z,68.30
2022-09-27T23:08:47.266Z,68.35
2022-09-27T23:11:17.602Z,68.09
2022-09-27T23:13:46.155Z,67.79
2022-09-27T23:16:16.164Z,68.89
2022-09-27T23:18:44.516Z,68.82
2022-09-27T23:21:14.141Z,68.48
2022-09-27T23:23:44.884Z,69.33
2022-09-27T23:26:17.332Z,68.97
2022-09-27T23:28:45.459Z,69.11
2022-09-27T23:31:22.110Z,69.51
2022-09-27T23:34:16.165Z,69.12
2022-09-27T23:36:43.984Z,68.44
2022-09-27T23:39:11.741Z,68.49
2022-09-27T23:41:41.165Z,68.45
2022-09-27T23:44:09.047Z,68.29
2022-09-27T23:46:37.392Z,68.59
2022-09-27T23:49:06.038Z,67.86
2022-09-27T23:51:33.821Z,68.24
2022-09-27T23:54:04.347Z,67.78
2022-09-27T23:56:32.145Z,67.79
2022-09-27T23:59:01.741Z,68.33
